sensor_id;sensor_type;location;lat;lon;timestamp;P1;durP1;ratioP1;P2;durP2;ratioP2
76393;SDS011;65216;51.090;-115.352;2023-06-10T00:01:36;12.30;;;4.40;;
76393;SDS011;65216;51.090;-115.352;2023-06-10T00:04:04;9.30;;;4.20;;
76393;SDS011;65216;51.090;-115.352;2023-06-10T00:09:51;11.80;;;4.00;;
76393;SDS011;65216;51.090;-115.352;2023-06-10T00:12:18;14.00;;;4.80;;
76393;SDS011;65216;51.090;-115.352;2023-06-10T00:14:46;8.50;;;3.80;;
76393;SDS011;65216;51.090;-115.352;2023-06-10T00:17:17;8.20;;;4.10;;
76393;SDS011;65216;51.090;-115.352;2023-06-10T00:22:18;9.90;;;3.80;;
76393;SDS011;65216;51.090;-115.352;2023-06-10T00:24:45;11.30;;;4.30;;
76393;SDS011;65216;51.090;-115.352;2023-06-10T00:27:40;14.90;;;4.20;;
76393;SDS011;65216;51.090;-115.352;2023-06-10T00:30:49;10.60;;;4.10;;
76393;SDS011;65216;51.090;-115.352;2023-06-10T00:33:17;13.30;;;3.70;;
76393;SDS011;65216;51.090;-115.352;2023-06-10T00:35:48;14.30;;;4.00;;
76393;SDS011;65216;51.090;-115.352;2023-06-10T00:38:15;11.80;;;4.20;;
76393;SDS011;65216;51.090;-115.352;2023-06-10T00:40:48;10.90;;;3.90;;
76393;SDS011;65216;51.090;-115.352;2023-06-10T00:43:15;12.10;;;4.00;;
76393;SDS011;65216;51.090;-115.352;2023-06-10T00:45:42;9.80;;;4.20;;
76393;SDS011;65216;51.090;-115.352;2023-06-10T00:48:09;15.60;;;4.20;;
76393;SDS011;65216;51.090;-115.352;2023-06-10T00:50:37;9.10;;;4.00;;
76393;SDS011;65216;51.090;-115.352;2023-06-10T00:53:06;11.70;;;4.10;;
76393;SDS011;65216;51.090;-115.352;2023-06-10T00:55:34;11.10;;;3.90;;
76393;SDS011;65216;51.090;-115.352;2023-06-10T00:58:09;18.00;;;3.70;;
76393;SDS011;65216;51.090;-115.352;2023-06-10T01:00:36;10.80;;;3.80;;
76393;SDS011;65216;51.090;-115.352;2023-06-10T01:03:04;10.20;;;3.70;;
76393;SDS011;65216;51.090;-115.352;2023-06-10T01:05:35;10.60;;;3.90;;
76393;SDS011;65216;51.090;-115.352;2023-06-10T01:10:53;12.70;;;4.10;;
76393;SDS011;65216;51.090;-115.352;2023-06-10T01:13:25;9.30;;;3.70;;
76393;SDS011;65216;51.090;-115.352;2023-06-10T01:15:58;10.60;;;4.50;;
76393;SDS011;65216;51.090;-115.352;2023-06-10T01:18:31;12.10;;;3.40;;
76393;SDS011;65216;51.090;-115.352;2023-06-10T01:20:59;10.60;;;4.00;;
76393;SDS011;65216;51.090;-115.352;2023-06-10T01:23:26;13.10;;;4.10;;
76393;SDS011;65216;51.090;-115.352;2023-06-10T01:26:07;9.30;;;3.80;;
76393;SDS011;65216;51.090;-115.352;2023-06-10T01:28:51;10.20;;;4.10;;
76393;SDS011;65216;51.090;-115.352;2023-06-10T01:31:41;12.50;;;4.00;;
76393;SDS011;65216;51.090;-115.352;2023-06-10T01:34:31;14.40;;;4.50;;
76393;SDS011;65216;51.090;-115.352;2023-06-10T01:37:04;14.90;;;4.40;;
76393;SDS011;65216;51.090;-115.352;2023-06-10T01:39:32;12.30;;;5.20;;
76393;SDS011;65216;51.090;-115.352;2023-06-10T01:42:00;16.30;;;5.00;;
76393;SDS011;65216;51.090;-115.352;2023-06-10T01:44:28;13.80;;;4.70;;
76393;SDS011;65216;51.090;-115.352;2023-06-10T01:46:55;13.20;;;4.90;;
76393;SDS011;65216;51.090;-115.352;2023-06-10T01:49:25;14.50;;;5.10;;
76393;SDS011;65216;51.090;-115.352;2023-06-10T01:51:54;11.40;;;5.10;;
76393;SDS011;65216;51.090;-115.352;2023-06-10T01:54:24;20.80;;;5.60;;
76393;SDS011;65216;51.090;-115.352;2023-06-10T01:56:54;13.50;;;5.60;;
76393;SDS011;65216;51.090;-115.352;2023-06-10T01:59:24;14.70;;;5.90;;
76393;SDS011;65216;51.090;-115.352;2023-06-10T02:01:53;19.50;;;6.30;;
76393;SDS011;65216;51.090;-115.352;2023-06-10T02:04:21;16.60;;;6.80;;
76393;SDS011;65216;51.090;-115.352;2023-06-10T02:06:47;13.40;;;6.50;;
76393;SDS011;65216;51.090;-115.352;2023-06-10T02:09:14;20.00;;;6.90;;
76393;SDS011;65216;51.090;-115.352;2023-06-10T02:11:42;15.50;;;7.70;;
76393;SDS011;65216;51.090;-115.352;2023-06-10T02:14:09;15.40;;;7.20;;
76393;SDS011;65216;51.090;-115.352;2023-06-10T02:16:36;14.50;;;6.80;;
76393;SDS011;65216;51.090;-115.352;2023-06-10T02:19:03;20.60;;;7.70;;
76393;SDS011;65216;51.090;-115.352;2023-06-10T02:21:33;18.80;;;7.60;;
76393;SDS011;65216;51.090;-115.352;2023-06-10T02:24:05;20.60;;;8.00;;
76393;SDS011;65216;51.090;-115.352;2023-06-10T02:26:35;15.90;;;7.70;;
76393;SDS011;65216;51.090;-115.352;2023-06-10T02:29:05;15.10;;;8.30;;
76393;SDS011;65216;51.090;-115.352;2023-06-10T02:31:32;17.40;;;7.50;;
76393;SDS011;65216;51.090;-115.352;2023-06-10T02:34:01;15.50;;;7.30;;
76393;SDS011;65216;51.090;-115.352;2023-06-10T02:36:29;15.60;;;7.40;;
76393;SDS011;65216;51.090;-115.352;2023-06-10T02:38:57;17.10;;;7.80;;
76393;SDS011;65216;51.090;-115.352;2023-06-10T02:41:24;17.10;;;7.50;;
76393;SDS011;65216;51.090;-115.352;2023-06-10T02:43:52;17.80;;;8.00;;
76393;SDS011;65216;51.090;-115.352;2023-06-10T02:46:25;14.70;;;7.50;;
76393;SDS011;65216;51.090;-115.352;2023-06-10T02:48:54;21.60;;;8.20;;
76393;SDS011;65216;51.090;-115.352;2023-06-10T02:51:21;21.10;;;7.90;;
76393;SDS011;65216;51.090;-115.352;2023-06-10T02:53:48;21.60;;;7.60;;
76393;SDS011;65216;51.090;-115.352;2023-06-10T02:56:19;18.50;;;7.60;;
76393;SDS011;65216;51.090;-115.352;2023-06-10T02:58:46;21.40;;;7.10;;
76393;SDS011;65216;51.090;-115.352;2023-06-10T03:01:14;19.40;;;7.70;;
76393;SDS011;65216;51.090;-115.352;2023-06-10T03:03:42;16.90;;;7.10;;
76393;SDS011;65216;51.090;-115.352;2023-06-10T03:06:12;18.60;;;7.00;;
76393;SDS011;65216;51.090;-115.352;2023-06-10T03:08:41;17.30;;;7.80;;
76393;SDS011;65216;51.090;-115.352;2023-06-10T03:11:08;14.20;;;8.10;;
76393;SDS011;65216;51.090;-115.352;2023-06-10T03:13:36;13.50;;;7.10;;
76393;SDS011;65216;51.090;-115.352;2023-06-10T03:16:07;14.10;;;7.80;;
76393;SDS011;65216;51.090;-115.352;2023-06-10T03:18:34;16.60;;;7.20;;
76393;SDS011;65216;51.090;-115.352;2023-06-10T03:21:01;13.00;;;7.10;;
76393;SDS011;65216;51.090;-115.352;2023-06-10T03:23:29;15.70;;;7.10;;
76393;SDS011;65216;51.090;-115.352;2023-06-10T03:25:56;11.70;;;7.00;;
76393;SDS011;65216;51.090;-115.352;2023-06-10T03:28:23;11.80;;;7.30;;
76393;SDS011;65216;51.090;-115.352;2023-06-10T03:30:50;12.20;;;6.10;;
76393;SDS011;65216;51.090;-115.352;2023-06-10T03:33:20;11.70;;;6.70;;
76393;SDS011;65216;51.090;-115.352;2023-06-10T03:35:48;10.40;;;6.60;;
76393;SDS011;65216;51.090;-115.352;2023-06-10T03:38:15;10.90;;;6.70;;
76393;SDS011;65216;51.090;-115.352;2023-06-10T03:40:42;9.50;;;6.10;;
76393;SDS011;65216;51.090;-115.352;2023-06-10T03:43:09;9.70;;;6.40;;
76393;SDS011;65216;51.090;-115.352;2023-06-10T03:45:36;10.20;;;6.80;;
76393;SDS011;65216;51.090;-115.352;2023-06-10T03:48:04;11.00;;;6.60;;
76393;SDS011;65216;51.090;-115.352;2023-06-10T03:50:32;10.30;;;6.50;;
76393;SDS011;65216;51.090;-115.352;2023-06-10T03:52:59;12.00;;;6.50;;
76393;SDS011;65216;51.090;-115.352;2023-06-10T03:55:26;12.10;;;6.50;;
76393;SDS011;65216;51.090;-115.352;2023-06-10T03:57:54;10.10;;;6.30;;
76393;SDS011;65216;51.090;-115.352;2023-06-10T04:00:27;8.80;;;6.00;;
76393;SDS011;65216;51.090;-115.352;2023-06-10T04:02:58;11.60;;;6.30;;
76393;SDS011;65216;51.090;-115.352;2023-06-10T04:05:25;9.50;;;6.20;;
76393;SDS011;65216;51.090;-115.352;2023-06-10T04:07:56;9.60;;;6.10;;
76393;SDS011;65216;51.090;-115.352;2023-06-10T04:10:27;9.60;;;6.20;;
76393;SDS011;65216;51.090;-115.352;2023-06-10T04:12:57;9.90;;;6.70;;
76393;SDS011;65216;51.090;-115.352;2023-06-10T04:15:27;10.00;;;7.00;;
76393;SDS011;65216;51.090;-115.352;2023-06-10T04:17:56;10.50;;;7.10;;
76393;SDS011;65216;51.090;-115.352;2023-06-10T04:20:23;8.90;;;6.20;;
76393;SDS011;65216;51.090;-115.352;2023-06-10T04:22:50;9.60;;;6.70;;
76393;SDS011;65216;51.090;-115.352;2023-06-10T04:25:19;11.00;;;6.50;;
76393;SDS011;65216;51.090;-115.352;2023-06-10T04:27:46;10.20;;;6.50;;
76393;SDS011;65216;51.090;-115.352;2023-06-10T04:30:13;8.70;;;6.00;;
76393;SDS011;65216;51.090;-115.352;2023-06-10T04:32:41;10.50;;;6.40;;
76393;SDS011;65216;51.090;-115.352;2023-06-10T04:35:11;12.00;;;6.40;;
76393;SDS011;65216;51.090;-115.352;2023-06-10T04:37:39;10.00;;;6.40;;
76393;SDS011;65216;51.090;-115.352;2023-06-10T04:40:10;10.30;;;6.70;;
76393;SDS011;65216;51.090;-115.352;2023-06-10T04:42:41;10.20;;;6.20;;
76393;SDS011;65216;51.090;-115.352;2023-06-10T04:45:14;10.80;;;6.60;;
76393;SDS011;65216;51.090;-115.352;2023-06-10T04:47:41;8.40;;;5.90;;
76393;SDS011;65216;51.090;-115.352;2023-06-10T04:50:09;9.80;;;6.00;;
76393;SDS011;65216;51.090;-115.352;2023-06-10T04:52:36;10.80;;;6.00;;
76393;SDS011;65216;51.090;-115.352;2023-06-10T04:55:04;9.20;;;6.40;;
76393;SDS011;65216;51.090;-115.352;2023-06-10T04:57:34;10.20;;;6.70;;
76393;SDS011;65216;51.090;-115.352;2023-06-10T05:00:04;10.30;;;6.40;;
76393;SDS011;65216;51.090;-115.352;2023-06-10T05:02:32;10.50;;;6.60;;
76393;SDS011;65216;51.090;-115.352;2023-06-10T05:04:59;8.20;;;5.80;;
76393;SDS011;65216;51.090;-115.352;2023-06-10T05:07:26;8.90;;;6.00;;
76393;SDS011;65216;51.090;-115.352;2023-06-10T05:09:54;7.90;;;5.70;;
76393;SDS011;65216;51.090;-115.352;2023-06-10T05:12:21;8.60;;;5.70;;
76393;SDS011;65216;51.090;-115.352;2023-06-10T05:14:53;12.60;;;6.30;;
76393;SDS011;65216;51.090;-115.352;2023-06-10T05:17:22;11.20;;;6.50;;
76393;SDS011;65216;51.090;-115.352;2023-06-10T05:19:51;10.40;;;6.40;;
76393;SDS011;65216;51.090;-115.352;2023-06-10T05:22:18;9.20;;;5.60;;
76393;SDS011;65216;51.090;-115.352;2023-06-10T05:24:48;12.70;;;6.20;;
76393;SDS011;65216;51.090;-115.352;2023-06-10T05:27:15;9.40;;;6.30;;
76393;SDS011;65216;51.090;-115.352;2023-06-10T05:29:43;11.30;;;6.30;;
76393;SDS011;65216;51.090;-115.352;2023-06-10T05:32:11;10.30;;;6.10;;
76393;SDS011;65216;51.090;-115.352;2023-06-10T05:34:38;10.10;;;6.30;;
76393;SDS011;65216;51.090;-115.352;2023-06-10T05:37:05;10.00;;;6.00;;
76393;SDS011;65216;51.090;-115.352;2023-06-10T05:39:35;9.30;;;6.10;;
76393;SDS011;65216;51.090;-115.352;2023-06-10T05:42:09;8.80;;;6.10;;
76393;SDS011;65216;51.090;-115.352;2023-06-10T05:44:36;9.80;;;6.40;;
76393;SDS011;65216;51.090;-115.352;2023-06-10T05:47:03;9.30;;;6.00;;
76393;SDS011;65216;51.090;-115.352;2023-06-10T05:49:30;8.60;;;6.10;;
76393;SDS011;65216;51.090;-115.352;2023-06-10T05:51:57;11.20;;;6.50;;
76393;SDS011;65216;51.090;-115.352;2023-06-10T05:54:26;9.50;;;6.30;;
76393;SDS011;65216;51.090;-115.352;2023-06-10T05:56:53;9.00;;;5.60;;
76393;SDS011;65216;51.090;-115.352;2023-06-10T05:59:20;10.90;;;6.00;;
76393;SDS011;65216;51.090;-115.352;2023-06-10T06:01:50;12.90;;;6.70;;
76393;SDS011;65216;51.090;-115.352;2023-06-10T06:04:16;11.50;;;6.40;;
76393;SDS011;65216;51.090;-115.352;2023-06-10T06:06:44;10.40;;;6.60;;
76393;SDS011;65216;51.090;-115.352;2023-06-10T06:09:10;10.50;;;6.10;;
76393;SDS011;65216;51.090;-115.352;2023-06-10T06:11:38;13.60;;;6.00;;
76393;SDS011;65216;51.090;-115.352;2023-06-10T06:14:06;9.50;;;6.20;;
76393;SDS011;65216;51.090;-115.352;2023-06-10T06:16:35;10.60;;;6.40;;
76393;SDS011;65216;51.090;-115.352;2023-06-10T06:19:02;10.80;;;5.70;;
76393;SDS011;65216;51.090;-115.352;2023-06-10T06:21:29;10.60;;;7.00;;
76393;SDS011;65216;51.090;-115.352;2023-06-10T06:23:56;10.70;;;6.60;;
76393;SDS011;65216;51.090;-115.352;2023-06-10T06:26:24;10.30;;;6.80;;
76393;SDS011;65216;51.090;-115.352;2023-06-10T06:28:51;9.90;;;6.60;;
76393;SDS011;65216;51.090;-115.352;2023-06-10T06:31:18;10.30;;;6.80;;
76393;SDS011;65216;51.090;-115.352;2023-06-10T06:33:46;10.80;;;6.70;;
76393;SDS011;65216;51.090;-115.352;2023-06-10T06:36:13;11.00;;;6.50;;
76393;SDS011;65216;51.090;-115.352;2023-06-10T06:38:43;11.30;;;6.70;;
76393;SDS011;65216;51.090;-115.352;2023-06-10T06:41:10;10.00;;;6.60;;
76393;SDS011;65216;51.090;-115.352;2023-06-10T06:43:37;10.50;;;6.30;;
76393;SDS011;65216;51.090;-115.352;2023-06-10T06:46:04;10.60;;;6.30;;
76393;SDS011;65216;51.090;-115.352;2023-06-10T06:48:31;11.00;;;6.70;;
76393;SDS011;65216;51.090;-115.352;2023-06-10T06:51:02;8.10;;;6.10;;
76393;SDS011;65216;51.090;-115.352;2023-06-10T06:53:32;9.50;;;6.70;;
76393;SDS011;65216;51.090;-115.352;2023-06-10T06:55:59;11.00;;;6.40;;
76393;SDS011;65216;51.090;-115.352;2023-06-10T06:58:26;10.80;;;6.90;;
76393;SDS011;65216;51.090;-115.352;2023-06-10T07:00:53;9.70;;;6.90;;
76393;SDS011;65216;51.090;-115.352;2023-06-10T07:03:20;9.90;;;6.50;;
76393;SDS011;65216;51.090;-115.352;2023-06-10T07:05:47;9.70;;;6.70;;
76393;SDS011;65216;51.090;-115.352;2023-06-10T07:08:15;9.70;;;6.30;;
76393;SDS011;65216;51.090;-115.352;2023-06-10T07:10:42;9.80;;;6.50;;
76393;SDS011;65216;51.090;-115.352;2023-06-10T07:13:09;8.60;;;6.50;;
76393;SDS011;65216;51.090;-115.352;2023-06-10T07:15:36;9.40;;;6.40;;
76393;SDS011;65216;51.090;-115.352;2023-06-10T07:18:07;9.20;;;6.50;;
76393;SDS011;65216;51.090;-115.352;2023-06-10T07:20:34;9.10;;;6.50;;
76393;SDS011;65216;51.090;-115.352;2023-06-10T07:23:01;9.30;;;6.60;;
76393;SDS011;65216;51.090;-115.352;2023-06-10T07:25:29;9.10;;;5.90;;
76393;SDS011;65216;51.090;-115.352;2023-06-10T07:27:56;8.80;;;6.80;;
76393;SDS011;65216;51.090;-115.352;2023-06-10T07:30:23;9.00;;;6.40;;
76393;SDS011;65216;51.090;-115.352;2023-06-10T07:32:51;9.10;;;6.40;;
76393;SDS011;65216;51.090;-115.352;2023-06-10T07:35:18;9.10;;;6.90;;
76393;SDS011;65216;51.090;-115.352;2023-06-10T07:37:44;9.50;;;6.70;;
76393;SDS011;65216;51.090;-115.352;2023-06-10T07:40:12;10.60;;;6.60;;
76393;SDS011;65216;51.090;-115.352;2023-06-10T07:42:39;9.00;;;6.40;;
76393;SDS011;65216;51.090;-115.352;2023-06-10T07:45:08;11.00;;;7.00;;
76393;SDS011;65216;51.090;-115.352;2023-06-10T07:47:35;9.10;;;6.30;;
76393;SDS011;65216;51.090;-115.352;2023-06-10T07:50:02;10.00;;;6.70;;
76393;SDS011;65216;51.090;-115.352;2023-06-10T07:52:29;10.10;;;6.50;;
76393;SDS011;65216;51.090;-115.352;2023-06-10T07:54:57;8.80;;;6.40;;
76393;SDS011;65216;51.090;-115.352;2023-06-10T07:57:24;9.90;;;6.90;;
76393;SDS011;65216;51.090;-115.352;2023-06-10T07:59:51;10.00;;;6.50;;
76393;SDS011;65216;51.090;-115.352;2023-06-10T08:02:18;8.90;;;6.40;;
76393;SDS011;65216;51.090;-115.352;2023-06-10T08:04:45;9.10;;;6.20;;
76393;SDS011;65216;51.090;-115.352;2023-06-10T08:07:12;9.60;;;6.70;;
76393;SDS011;65216;51.090;-115.352;2023-06-10T08:09:39;9.70;;;6.60;;
76393;SDS011;65216;51.090;-115.352;2023-06-10T08:12:07;9.70;;;6.70;;
76393;SDS011;65216;51.090;-115.352;2023-06-10T08:14:34;9.60;;;6.40;;
76393;SDS011;65216;51.090;-115.352;2023-06-10T08:17:03;9.80;;;6.40;;
76393;SDS011;65216;51.090;-115.352;2023-06-10T08:19:31;9.30;;;6.60;;
76393;SDS011;65216;51.090;-115.352;2023-06-10T08:21:59;9.30;;;6.50;;
76393;SDS011;65216;51.090;-115.352;2023-06-10T08:24:26;9.50;;;6.70;;
76393;SDS011;65216;51.090;-115.352;2023-06-10T08:26:56;9.90;;;6.50;;
76393;SDS011;65216;51.090;-115.352;2023-06-10T08:29:23;10.20;;;7.00;;
76393;SDS011;65216;51.090;-115.352;2023-06-10T08:31:51;10.10;;;6.80;;
76393;SDS011;65216;51.090;-115.352;2023-06-10T08:34:19;8.40;;;6.30;;
76393;SDS011;65216;51.090;-115.352;2023-06-10T08:36:46;9.60;;;6.60;;
76393;SDS011;65216;51.090;-115.352;2023-06-10T08:39:14;8.90;;;6.40;;
76393;SDS011;65216;51.090;-115.352;2023-06-10T08:41:43;9.90;;;6.60;;
76393;SDS011;65216;51.090;-115.352;2023-06-10T08:44:30;10.00;;;6.80;;
76393;SDS011;65216;51.090;-115.352;2023-06-10T08:47:00;8.30;;;6.30;;
76393;SDS011;65216;51.090;-115.352;2023-06-10T08:49:30;10.20;;;6.50;;
76393;SDS011;65216;51.090;-115.352;2023-06-10T08:52:02;9.20;;;6.30;;
76393;SDS011;65216;51.090;-115.352;2023-06-10T08:54:33;9.10;;;6.70;;
76393;SDS011;65216;51.090;-115.352;2023-06-10T08:57:05;9.50;;;6.40;;
76393;SDS011;65216;51.090;-115.352;2023-06-10T08:59:32;10.40;;;6.90;;
76393;SDS011;65216;51.090;-115.352;2023-06-10T09:02:01;10.20;;;7.00;;
76393;SDS011;65216;51.090;-115.352;2023-06-10T09:04:30;9.00;;;6.30;;
76393;SDS011;65216;51.090;-115.352;2023-06-10T09:06:58;9.80;;;6.90;;
76393;SDS011;65216;51.090;-115.352;2023-06-10T09:09:28;10.00;;;7.10;;
76393;SDS011;65216;51.090;-115.352;2023-06-10T09:11:58;10.50;;;6.90;;
76393;SDS011;65216;51.090;-115.352;2023-06-10T09:14:25;9.70;;;6.80;;
76393;SDS011;65216;51.090;-115.352;2023-06-10T09:16:56;9.40;;;6.60;;
76393;SDS011;65216;51.090;-115.352;2023-06-10T09:19:26;10.30;;;7.00;;
76393;SDS011;65216;51.090;-115.352;2023-06-10T09:21:55;9.40;;;6.50;;
76393;SDS011;65216;51.090;-115.352;2023-06-10T09:24:28;9.80;;;6.70;;
76393;SDS011;65216;51.090;-115.352;2023-06-10T09:27:07;11.20;;;7.20;;
76393;SDS011;65216;51.090;-115.352;2023-06-10T09:29:51;10.60;;;7.30;;
76393;SDS011;65216;51.090;-115.352;2023-06-10T09:32:20;9.70;;;7.30;;
76393;SDS011;65216;51.090;-115.352;2023-06-10T09:34:48;9.40;;;6.60;;
76393;SDS011;65216;51.090;-115.352;2023-06-10T09:37:23;9.40;;;6.70;;
76393;SDS011;65216;51.090;-115.352;2023-06-10T09:40:07;10.70;;;6.80;;
76393;SDS011;65216;51.090;-115.352;2023-06-10T09:42:38;9.70;;;7.10;;
76393;SDS011;65216;51.090;-115.352;2023-06-10T09:45:07;11.80;;;7.10;;
76393;SDS011;65216;51.090;-115.352;2023-06-10T09:47:34;9.70;;;7.10;;
76393;SDS011;65216;51.090;-115.352;2023-06-10T09:50:02;10.00;;;7.00;;
76393;SDS011;65216;51.090;-115.352;2023-06-10T09:52:29;10.60;;;6.70;;
76393;SDS011;65216;51.090;-115.352;2023-06-10T09:55:01;10.00;;;6.60;;
76393;SDS011;65216;51.090;-115.352;2023-06-10T09:57:35;10.80;;;7.40;;
76393;SDS011;65216;51.090;-115.352;2023-06-10T10:00:06;10.80;;;7.10;;
76393;SDS011;65216;51.090;-115.352;2023-06-10T10:02:47;11.30;;;7.00;;
76393;SDS011;65216;51.090;-115.352;2023-06-10T10:05:17;10.60;;;7.50;;
76393;SDS011;65216;51.090;-115.352;2023-06-10T10:07:46;10.30;;;7.10;;
76393;SDS011;65216;51.090;-115.352;2023-06-10T10:10:15;11.40;;;6.60;;
76393;SDS011;65216;51.090;-115.352;2023-06-10T10:12:46;9.70;;;7.10;;
76393;SDS011;65216;51.090;-115.352;2023-06-10T10:15:17;9.80;;;7.10;;
76393;SDS011;65216;51.090;-115.352;2023-06-10T10:17:55;10.90;;;7.50;;
76393;SDS011;65216;51.090;-115.352;2023-06-10T10:20:37;10.60;;;7.10;;
76393;SDS011;65216;51.090;-115.352;2023-06-10T10:23:14;11.40;;;7.20;;
76393;SDS011;65216;51.090;-115.352;2023-06-10T10:25:53;10.50;;;7.50;;
76393;SDS011;65216;51.090;-115.352;2023-06-10T10:28:24;10.00;;;6.80;;
76393;SDS011;65216;51.090;-115.352;2023-06-10T10:31:08;10.70;;;7.40;;
76393;SDS011;65216;51.090;-115.352;2023-06-10T10:34:15;10.30;;;7.10;;
76393;SDS011;65216;51.090;-115.352;2023-06-10T10:36:35;10.90;;;7.00;;
76393;SDS011;65216;51.090;-115.352;2023-06-10T10:39:04;11.40;;;7.70;;
76393;SDS011;65216;51.090;-115.352;2023-06-10T10:41:32;9.60;;;6.90;;
76393;SDS011;65216;51.090;-115.352;2023-06-10T10:44:04;11.30;;;7.80;;
76393;SDS011;65216;51.090;-115.352;2023-06-10T10:46:48;10.10;;;7.40;;
76393;SDS011;65216;51.090;-115.352;2023-06-10T10:49:17;10.30;;;7.10;;
76393;SDS011;65216;51.090;-115.352;2023-06-10T10:51:58;10.10;;;7.60;;
76393;SDS011;65216;51.090;-115.352;2023-06-10T10:54:35;12.50;;;7.10;;
76393;SDS011;65216;51.090;-115.352;2023-06-10T10:57:10;10.90;;;7.70;;
76393;SDS011;65216;51.090;-115.352;2023-06-10T10:59:52;10.30;;;7.10;;
76393;SDS011;65216;51.090;-115.352;2023-06-10T11:02:43;11.20;;;7.40;;
76393;SDS011;65216;51.090;-115.352;2023-06-10T11:05:15;11.00;;;7.60;;
76393;SDS011;65216;51.090;-115.352;2023-06-10T11:07:55;10.40;;;7.00;;
76393;SDS011;65216;51.090;-115.352;2023-06-10T11:10:36;10.20;;;7.30;;
76393;SDS011;65216;51.090;-115.352;2023-06-10T11:13:08;10.30;;;7.30;;
76393;SDS011;65216;51.090;-115.352;2023-06-10T11:15:49;10.20;;;6.80;;
76393;SDS011;65216;51.090;-115.352;2023-06-10T11:18:26;9.70;;;7.20;;
76393;SDS011;65216;51.090;-115.352;2023-06-10T11:21:04;10.70;;;7.40;;
76393;SDS011;65216;51.090;-115.352;2023-06-10T11:23:38;11.00;;;7.40;;
76393;SDS011;65216;51.090;-115.352;2023-06-10T11:26:43;9.90;;;7.30;;
76393;SDS011;65216;51.090;-115.352;2023-06-10T11:29:10;10.50;;;7.60;;
76393;SDS011;65216;51.090;-115.352;2023-06-10T11:31:41;10.30;;;6.90;;
76393;SDS011;65216;51.090;-115.352;2023-06-10T11:34:10;10.50;;;7.60;;
76393;SDS011;65216;51.090;-115.352;2023-06-10T11:36:41;10.90;;;7.30;;
76393;SDS011;65216;51.090;-115.352;2023-06-10T11:39:11;9.90;;;7.00;;
76393;SDS011;65216;51.090;-115.352;2023-06-10T11:41:39;10.00;;;7.00;;
76393;SDS011;65216;51.090;-115.352;2023-06-10T11:44:11;10.30;;;7.50;;
76393;SDS011;65216;51.090;-115.352;2023-06-10T11:46:40;11.10;;;7.60;;
76393;SDS011;65216;51.090;-115.352;2023-06-10T11:49:11;12.00;;;7.20;;
76393;SDS011;65216;51.090;-115.352;2023-06-10T11:51:40;10.60;;;7.30;;
76393;SDS011;65216;51.090;-115.352;2023-06-10T11:54:14;11.80;;;7.60;;
76393;SDS011;65216;51.090;-115.352;2023-06-10T11:56:45;10.50;;;7.30;;
76393;SDS011;65216;51.090;-115.352;2023-06-10T11:59:14;11.20;;;7.10;;
76393;SDS011;65216;51.090;-115.352;2023-06-10T12:01:44;11.20;;;8.00;;
76393;SDS011;65216;51.090;-115.352;2023-06-10T12:04:13;10.50;;;7.40;;
76393;SDS011;65216;51.090;-115.352;2023-06-10T12:09:39;11.20;;;7.90;;
76393;SDS011;65216;51.090;-115.352;2023-06-10T12:12:09;11.90;;;7.50;;
76393;SDS011;65216;51.090;-115.352;2023-06-10T12:14:52;10.40;;;6.90;;
76393;SDS011;65216;51.090;-115.352;2023-06-10T12:20:00;10.50;;;7.30;;
76393;SDS011;65216;51.090;-115.352;2023-06-10T12:22:45;11.30;;;7.40;;
76393;SDS011;65216;51.090;-115.352;2023-06-10T12:25:15;10.40;;;6.90;;
76393;SDS011;65216;51.090;-115.352;2023-06-10T12:27:52;9.80;;;7.30;;
76393;SDS011;65216;51.090;-115.352;2023-06-10T12:30:23;10.30;;;7.50;;
76393;SDS011;65216;51.090;-115.352;2023-06-10T12:32:52;10.40;;;7.60;;
76393;SDS011;65216;51.090;-115.352;2023-06-10T12:35:21;11.30;;;8.00;;
76393;SDS011;65216;51.090;-115.352;2023-06-10T12:38:05;11.00;;;7.90;;
76393;SDS011;65216;51.090;-115.352;2023-06-10T12:40:41;11.80;;;7.70;;
76393;SDS011;65216;51.090;-115.352;2023-06-10T12:43:09;11.80;;;8.00;;
76393;SDS011;65216;51.090;-115.352;2023-06-10T12:45:39;11.20;;;7.40;;
76393;SDS011;65216;51.090;-115.352;2023-06-10T12:48:12;11.10;;;7.80;;
76393;SDS011;65216;51.090;-115.352;2023-06-10T12:50:53;11.30;;;7.60;;
76393;SDS011;65216;51.090;-115.352;2023-06-10T12:53:22;9.90;;;7.40;;
76393;SDS011;65216;51.090;-115.352;2023-06-10T12:55:55;10.80;;;7.50;;
76393;SDS011;65216;51.090;-115.352;2023-06-10T12:58:26;10.40;;;6.90;;
76393;SDS011;65216;51.090;-115.352;2023-06-10T13:00:53;11.70;;;8.50;;
76393;SDS011;65216;51.090;-115.352;2023-06-10T13:03:20;11.20;;;7.80;;
76393;SDS011;65216;51.090;-115.352;2023-06-10T13:05:50;11.70;;;7.80;;
76393;SDS011;65216;51.090;-115.352;2023-06-10T13:08:23;11.50;;;7.80;;
76393;SDS011;65216;51.090;-115.352;2023-06-10T13:10:54;11.20;;;7.80;;
76393;SDS011;65216;51.090;-115.352;2023-06-10T13:13:21;11.70;;;8.10;;
76393;SDS011;65216;51.090;-115.352;2023-06-10T13:15:54;10.50;;;7.60;;
76393;SDS011;65216;51.090;-115.352;2023-06-10T13:18:21;10.20;;;7.20;;
76393;SDS011;65216;51.090;-115.352;2023-06-10T13:20:48;11.40;;;8.00;;
76393;SDS011;65216;51.090;-115.352;2023-06-10T13:23:18;11.40;;;7.60;;
76393;SDS011;65216;51.090;-115.352;2023-06-10T13:25:45;10.60;;;7.30;;
76393;SDS011;65216;51.090;-115.352;2023-06-10T13:28:13;11.70;;;8.30;;
76393;SDS011;65216;51.090;-115.352;2023-06-10T13:30:40;10.80;;;7.70;;
76393;SDS011;65216;51.090;-115.352;2023-06-10T13:33:10;11.40;;;8.10;;
76393;SDS011;65216;51.090;-115.352;2023-06-10T13:35:41;11.00;;;7.50;;
76393;SDS011;65216;51.090;-115.352;2023-06-10T13:38:11;11.70;;;8.10;;
76393;SDS011;65216;51.090;-115.352;2023-06-10T13:40:38;12.70;;;8.50;;
76393;SDS011;65216;51.090;-115.352;2023-06-10T13:43:09;11.60;;;8.00;;
76393;SDS011;65216;51.090;-115.352;2023-06-10T13:45:36;12.50;;;8.60;;
76393;SDS011;65216;51.090;-115.352;2023-06-10T13:48:03;11.40;;;8.30;;
76393;SDS011;65216;51.090;-115.352;2023-06-10T13:50:34;11.50;;;8.10;;
76393;SDS011;65216;51.090;-115.352;2023-06-10T13:53:01;11.10;;;7.50;;
76393;SDS011;65216;51.090;-115.352;2023-06-10T13:55:28;12.60;;;8.00;;
76393;SDS011;65216;51.090;-115.352;2023-06-10T13:57:58;10.60;;;7.70;;
76393;SDS011;65216;51.090;-115.352;2023-06-10T14:00:25;11.40;;;7.90;;
76393;SDS011;65216;51.090;-115.352;2023-06-10T14:02:55;10.00;;;7.40;;
76393;SDS011;65216;51.090;-115.352;2023-06-10T14:05:22;10.70;;;7.30;;
76393;SDS011;65216;51.090;-115.352;2023-06-10T14:07:50;12.40;;;8.60;;
76393;SDS011;65216;51.090;-115.352;2023-06-10T14:10:17;11.10;;;8.00;;
76393;SDS011;65216;51.090;-115.352;2023-06-10T14:12:44;11.90;;;7.70;;
76393;SDS011;65216;51.090;-115.352;2023-06-10T14:15:11;11.90;;;8.20;;
76393;SDS011;65216;51.090;-115.352;2023-06-10T14:17:41;11.70;;;8.00;;
76393;SDS011;65216;51.090;-115.352;2023-06-10T14:20:08;9.70;;;7.30;;
76393;SDS011;65216;51.090;-115.352;2023-06-10T14:22:36;10.20;;;7.20;;
76393;SDS011;65216;51.090;-115.352;2023-06-10T14:25:06;11.30;;;7.70;;
76393;SDS011;65216;51.090;-115.352;2023-06-10T14:28:03;10.70;;;7.30;;
76393;SDS011;65216;51.090;-115.352;2023-06-10T14:30:30;10.60;;;7.00;;
76393;SDS011;65216;51.090;-115.352;2023-06-10T14:32:57;10.70;;;7.90;;